createdAt,value
2019-04-03T08:52:41.228Z,61
2019-04-03T08:55:41.273Z,62
2019-04-03T08:58:41.448Z,63
2019-04-03T09:01:41.421Z,62
2019-04-03T09:04:41.545Z,62
2019-04-03T09:07:41.827Z,62
2019-04-03T09:10:41.598Z,62
2019-04-03T09:13:41.693Z,61
2019-04-03T09:16:41.835Z,61
2019-04-03T09:19:42.358Z,60
2019-04-03T09:22:41.879Z,60
2019-04-03T09:25:41.946Z,58
2019-04-03T09:28:42.495Z,58
2019-04-03T09:31:42.096Z,57
2019-04-03T09:34:42.157Z,58
2019-04-03T09:37:45.194Z,57
2019-04-03T09:40:42.293Z,57
2019-04-03T09:43:42.485Z,58
2019-04-03T09:46:44.713Z,55
2019-04-03T09:49:44.093Z,54
2019-04-03T09:52:48.135Z,43
2019-04-03T09:55:42.678Z,44
2019-04-03T09:58:43.005Z,38
2019-04-03T10:01:42.837Z,29
2019-04-03T10:04:43.403Z,30
2019-04-03T10:07:43.099Z,27
2019-04-03T10:10:43.132Z,32
2019-04-03T10:13:43.211Z,30
2019-04-03T10:16:43.262Z,30
2019-04-03T10:19:45.559Z,26
2019-04-03T10:22:43.766Z,25
2019-04-03T10:25:43.755Z,28
2019-04-03T10:28:46.884Z,28
2019-04-03T10:31:43.767Z,28
2019-04-03T10:34:43.835Z,29
2019-04-03T10:37:46.322Z,31
2019-04-03T10:40:44.005Z,34
2019-04-03T10:43:44.273Z,36
2019-04-03T10:46:44.482Z,33
2019-04-03T10:49:44.258Z,26
2019-04-03T10:52:48.216Z,30
2019-04-03T10:55:44.754Z,30
2019-04-03T10:58:44.548Z,30
2019-04-03T11:01:44.717Z,23
2019-04-03T11:04:44.718Z,21
2019-04-03T11:07:44.832Z,22
2019-04-03T11:10:44.909Z,22
2019-04-03T11:13:45.009Z,20
2019-04-03T11:16:46.505Z,20
2019-04-03T11:19:45.206Z,18
2019-04-03T11:22:47.823Z,18
2019-04-03T11:25:46.315Z,19
2019-04-03T11:28:45.873Z,20
2019-04-03T11:31:45.622Z,18
2019-04-03T11:34:48.981Z,17
2019-04-03T11:37:45.925Z,16
2019-04-03T11:40:45.936Z,15
2019-04-03T11:43:46.365Z,15
2019-04-03T11:46:46.237Z,15
2019-04-03T11:49:46.232Z,16
2019-04-03T11:52:46.756Z,16
2019-04-03T11:55:46.564Z,14
2019-04-03T11:58:46.825Z,17
2019-04-03T12:01:46.619Z,20
2019-04-03T12:04:46.750Z,22
2019-04-03T12:07:47.583Z,21
2019-04-03T12:10:47.289Z,19
2019-04-03T12:13:47.012Z,18
2019-04-03T12:16:47.123Z,20
2019-04-03T12:19:47.625Z,23
2019-04-03T12:22:47.481Z,23
2019-04-03T12:25:47.433Z,26
2019-04-03T12:28:49.082Z,27
2019-04-03T12:31:47.946Z,32
2019-04-03T12:34:47.654Z,44
2019-04-03T12:37:49.477Z,51
2019-04-03T12:40:47.992Z,52
2019-04-03T12:43:50.016Z,54
2019-04-03T12:46:47.995Z,54
2019-04-03T12:49:48.068Z,54
2019-04-03T12:52:48.450Z,55
2019-04-03T12:55:48.167Z,55
2019-04-03T12:58:48.551Z,57
2019-04-03T13:01:49.749Z,52
2019-04-03T13:04:48.414Z,55
2019-04-03T13:07:48.863Z,57
2019-04-03T13:10:49.238Z,55
2019-04-03T13:13:48.619Z,55
2019-04-03T13:16:48.678Z,48
2019-04-03T13:19:48.760Z,49
2019-04-03T13:22:48.871Z,54
2019-04-03T13:25:52.231Z,52
2019-04-03T13:28:49.007Z,44
2019-04-03T13:31:49.492Z,41
2019-04-03T13:34:49.320Z,40
2019-04-03T13:37:49.486Z,49
2019-04-03T13:40:49.764Z,50
2019-04-03T13:43:51.002Z,41
2019-04-03T13:46:52.303Z,52
2019-04-03T13:49:50.489Z,52
2019-04-03T13:52:50.501Z,49
2019-04-03T13:55:49.992Z,49
2019-04-03T13:58:52.621Z,54
2019-04-03T14:01:49.994Z,54
2019-04-03T14:04:50.101Z,49
2019-04-03T14:07:50.389Z,52
2019-04-03T14:10:50.493Z,53
2019-04-03T14:13:50.553Z,48
2019-04-03T14:16:50.340Z,46
2019-04-03T14:19:51.541Z,38
2019-04-03T14:22:50.425Z,34
2019-04-03T14:26:02.189Z,41
2019-04-03T14:28:50.941Z,40
2019-04-03T14:31:50.853Z,43
2019-04-03T14:34:50.713Z,51
2019-04-03T14:37:51.054Z,53
2019-04-03T14:40:50.990Z,55
2019-04-03T14:43:50.936Z,55
2019-04-03T14:46:51.710Z,56
2019-04-03T14:49:51.665Z,58
2019-04-03T14:52:51.476Z,59
2019-04-03T14:55:51.183Z,60
2019-04-03T14:58:51.603Z,61
2019-04-03T15:04:51.505Z,63
2019-04-03T15:07:51.538Z,63
2019-04-03T15:10:51.541Z,63
2019-04-03T15:13:51.697Z,64
2019-04-03T15:16:51.993Z,65
2019-04-03T15:19:51.894Z,65
2019-04-03T15:22:51.797Z,65
2019-04-03T15:25:53.322Z,66
2019-04-03T15:28:52.470Z,66
2019-04-03T15:34:51.985Z,67
2019-04-03T15:40:52.335Z,71
2019-04-03T15:43:52.237Z,73
2019-04-03T15:46:52.219Z,76
2019-04-03T15:49:52.275Z,76
2019-04-03T15:52:52.345Z,76
2019-04-03T15:55:52.431Z,76
2019-04-03T15:58:53.059Z,76
2019-04-03T16:01:52.628Z,77
2019-04-03T16:04:52.724Z,77
2019-04-03T16:07:52.783Z,76
2019-04-03T16:10:56.160Z,75
2019-04-03T16:13:52.747Z,76
2019-04-03T16:16:52.819Z,87
2019-04-03T16:19:53.445Z,96
2019-04-03T16:22:52.926Z,96
2019-04-03T16:25:53.329Z,97
2019-04-03T16:28:53.325Z,98
2019-04-03T16:31:54.109Z,98
2019-04-03T16:34:53.160Z,98
2019-04-03T16:37:56.666Z,98
2019-04-03T16:40:53.323Z,98
2019-04-03T16:43:54.837Z,97
2019-04-03T16:55:53.983Z,93
2019-04-03T16:58:53.727Z,94
2019-04-03T17:01:53.647Z,94
2019-04-03T17:04:53.829Z,93
2019-04-03T17:07:54.948Z,93
2019-04-03T17:10:54.051Z,93
2019-04-03T17:13:54.326Z,93
2019-04-03T17:16:53.950Z,93
2019-04-03T17:19:53.991Z,93
2019-04-03T17:22:54.049Z,93
2019-04-03T17:25:54.201Z,92
2019-04-03T17:29:03.369Z,92
2019-04-03T17:31:56.972Z,92
2019-04-03T17:34:54.268Z,92
2019-04-03T17:37:54.420Z,91
2019-04-03T17:40:54.412Z,92
2019-04-03T17:43:54.430Z,91
2019-04-03T17:46:54.597Z,92
2019-04-03T17:49:54.564Z,92
2019-04-03T17:52:54.591Z,92
2019-04-03T17:55:54.825Z,92
2019-04-03T17:58:54.700Z,92
2019-04-03T18:01:54.763Z,92
2019-04-03T18:04:54.927Z,91
2019-04-03T18:07:54.977Z,91
2019-04-03T18:10:54.946Z,92
2019-04-03T18:13:55.600Z,92
2019-04-03T18:16:55.172Z,92
2019-04-03T18:19:55.091Z,92
2019-04-03T18:22:55.160Z,92
2019-04-03T18:25:55.600Z,92
2019-04-03T18:28:55.307Z,92
2019-04-03T18:31:55.299Z,92
2019-04-03T18:34:55.701Z,92
2019-04-03T18:37:55.549Z,92
2019-04-03T18:40:55.602Z,91
2019-04-03T18:43:55.547Z,92
2019-04-03T18:46:55.610Z,92
2019-04-03T18:49:55.723Z,91
2019-04-03T18:52:55.716Z,91
2019-04-03T18:55:55.859Z,91
2019-04-03T18:58:55.922Z,91
2019-04-03T19:01:56.064Z,91
2019-04-03T19:05:01.749Z,91
2019-04-03T19:07:55.987Z,91
2019-04-03T19:11:01.978Z,91
2019-04-03T19:13:56.089Z,91
2019-04-03T19:16:56.196Z,90
2019-04-03T19:20:09.801Z,91
2019-04-03T19:23:02.466Z,90
2019-04-03T19:25:56.340Z,90
2019-04-03T19:28:56.442Z,89
2019-04-03T19:31:56.462Z,89
2019-04-03T19:34:56.713Z,89
2019-04-03T19:37:56.572Z,90
2019-04-03T19:40:56.656Z,89
2019-04-03T19:43:56.702Z,89
2019-04-03T19:46:56.703Z,89
2019-04-03T19:49:59.877Z,89
2019-04-03T19:55:56.896Z,89
2019-04-03T19:58:59.312Z,89
2019-04-03T20:01:56.981Z,89
2019-04-03T20:04:57.031Z,88
2019-04-03T20:07:58.929Z,89
2019-04-03T20:10:57.223Z,88
2019-04-03T20:13:57.244Z,88
2019-04-03T20:16:58.555Z,89
2019-04-03T20:19:57.923Z,89
2019-04-03T20:22:57.365Z,89
2019-04-03T20:25:57.450Z,90
2019-04-03T20:28:57.588Z,89
2019-04-03T20:31:57.545Z,90
2019-04-03T20:34:57.798Z,90
2019-04-03T20:37:57.742Z,90
2019-04-03T20:40:57.777Z,90
2019-04-03T20:43:57.797Z,90
2019-04-03T20:46:57.825Z,90
2019-04-03T20:49:57.873Z,90
2019-04-03T20:52:58.059Z,90
2019-04-03T20:55:58.751Z,91
2019-04-03T20:58:58.456Z,92
2019-04-03T21:01:58.178Z,92
2019-04-03T21:04:58.140Z,91
2019-04-03T21:07:58.192Z,90
2019-04-03T21:11:01.972Z,90
2019-04-03T21:13:58.347Z,89
2019-04-03T21:16:58.414Z,89
2019-04-03T21:19:58.894Z,89
2019-04-03T21:22:58.529Z,89
2019-04-03T21:25:58.594Z,89
2019-04-03T21:28:58.591Z,89
2019-04-03T21:31:58.751Z,89
2019-04-03T21:34:58.701Z,89
2019-04-03T21:37:59.030Z,88
2019-04-03T21:40:58.870Z,88
2019-04-03T21:43:59.970Z,88
2019-04-03T21:46:59.016Z,88
2019-04-03T21:49:58.975Z,88
2019-04-03T21:52:59.009Z,88
2019-04-03T21:56:01.877Z,88
2019-04-03T21:58:59.125Z,87
2019-04-03T22:01:59.223Z,87
2019-04-03T22:04:59.229Z,88
2019-04-03T22:07:59.286Z,88
2019-04-03T22:10:59.429Z,88
2019-04-03T22:13:59.444Z,87
2019-04-03T22:16:59.608Z,87
2019-04-03T22:19:59.613Z,87
2019-04-03T22:22:59.563Z,87
2019-04-03T22:25:59.681Z,86
2019-04-03T22:28:59.677Z,86
2019-04-03T22:31:59.829Z,87
2019-04-03T22:35:01.072Z,88
2019-04-03T22:37:59.838Z,88
2019-04-03T22:44:00.063Z,87
2019-04-03T22:47:00.019Z,87
2019-04-03T22:50:00.186Z,87
2019-04-03T22:53:00.214Z,87
2019-04-03T22:56:00.268Z,88
2019-04-03T22:59:00.300Z,88
2019-04-03T23:02:01.348Z,87
2019-04-03T23:05:00.388Z,87
2019-04-03T23:08:00.432Z,87
2019-04-03T23:11:01.335Z,88
2019-04-03T23:14:00.505Z,88
2019-04-03T23:17:00.540Z,88
2019-04-03T23:20:00.660Z,88
2019-04-03T23:23:00.778Z,88
2019-04-03T23:26:01.373Z,88
2019-04-03T23:29:00.832Z,88
2019-04-03T23:32:00.820Z,89
2019-04-03T23:35:01.033Z,89
2019-04-03T23:38:00.971Z,88
2019-04-03T23:41:00.990Z,89
2019-04-03T23:44:01.212Z,89
2019-04-03T23:47:01.139Z,90
2019-04-03T23:50:01.198Z,89
2019-04-03T23:53:01.533Z,90
2019-04-03T23:56:01.247Z,91
2019-04-03T23:59:01.359Z,92
